Dominia — ICFW — position and weather

sailwx.info

Track history (hours):
 
Tides and Currents Weather Stations Pressure Air Temp Water Temp Dewpoint Dewpoint Depression Visibility Wind Speed Wind Dir Waves Ship Positions

Dominia

Last reported at 2016-May-25 04:10 UTC. Time now 2016-May-29 00:06 UTC.
Position N 31°13' E 029°44'.

Length 176 m; draft 10.3 m.

Type: Tanker. MMSI: 247273400.

Date/timePositionNaut miles runAvg speedWind from/ knotsBaromVisibWave heightAir tempDewpointWater temp
2016-May-25 04:10N 31°13' E 029°44'  
2016-May-21 21:33N 33°40' E 028°38'1212.4
2016-May-21 20:33N 33°51' E 028°32'2612.4
2016-May-21 18:27N 34°15' E 028°21'7312.2
2016-May-21 12:28N 35°23' E 027°47'15111.6
2016-May-20 23:25N 37°25' E 025°55'225 7.0
2016-May-19 15:29N 40°40' E 028°19'2311.8
2016-May-19 13:33N 40°51' E 028°46'9 8.6
2016-May-19 12:30N 40°57' E 028°55'400 8.9
2016-May-17 15:30N 44°13' E 036°48'1212.6
2016-May-17 14:33N 44°18' E 037°03'1312.5
2016-May-17 13:33N 44°24' E 037°19'1212.5
2016-May-17 12:33N 44°29' E 037°34'1212.2
2016-May-17 11:33N 44°37' E 037°48'7 6.7
2016-May-17 10:33N 44°44' E 037°48'1 0.5
2016-May-17 09:33N 44°44' E 037°47'0 0.0
2016-May-17 08:33N 44°44' E 037°47'0 0.0
2016-May-17 07:33N 44°44' E 037°47'0 0.0
2016-May-17 06:33N 44°44' E 037°47'0 0.0
2016-May-17 05:30N 44°44' E 037°47'0 0.0
2016-May-17 04:33N 44°44' E 037°47'0 0.0
2016-May-17 03:33N 44°44' E 037°47'0 0.0
2016-May-17 02:24N 44°44' E 037°47'0 0.0
2016-May-17 01:33N 44°44' E 037°47'0 0.0
2016-May-17 00:33N 44°44' E 037°47'0 0.0
2016-May-16 23:33N 44°44' E 037°47'0 0.0
2016-May-16 22:33N 44°44' E 037°47'0 0.0
2016-May-16 21:33N 44°44' E 037°47'0 0.0
2016-May-16 20:33N 44°44' E 037°47'0 0.0
2016-May-16 19:33N 44°44' E 037°47'0 0.0
2016-May-16 18:33N 44°44' E 037°47'0 0.0
2016-May-16 17:33N 44°44' E 037°47'0 0.0
2016-May-16 16:33N 44°44' E 037°47'0 0.0
2016-May-16 15:33N 44°44' E 037°47'0 0.0
2016-May-16 14:33N 44°44' E 037°47'0 0.0
2016-May-16 13:33N 44°44' E 037°47'0 0.0
2016-May-16 12:33N 44°44' E 037°47'0 0.0
2016-May-16 11:33N 44°44' E 037°47'0 0.0
2016-May-16 10:33N 44°44' E 037°47'0 0.0
2016-May-16 09:30N 44°44' E 037°47'0 0.0
2016-May-16 08:33N 44°44' E 037°47'0 0.0
2016-May-16 07:33N 44°44' E 037°47'0 0.0
2016-May-16 06:33N 44°44' E 037°47'0 0.0
2016-May-16 05:33N 44°44' E 037°47'0 0.0
2016-May-16 04:33N 44°44' E 037°47'0 0.0
2016-May-16 03:33N 44°44' E 037°47'0 0.0
2016-May-16 02:33N 44°44' E 037°47'0 0.0
2016-May-16 01:33N 44°44' E 037°47'0 0.0
2016-May-16 00:33N 44°44' E 037°47'0 0.0
2016-May-15 23:33N 44°44' E 037°47'0 0.0
2016-May-15 22:33N 44°44' E 037°47'0 0.0
2016-May-15 21:30N 44°44' E 037°47'0 0.0
2016-May-15 20:15N 44°44' E 037°47'0 0.0
2016-May-15 19:33N 44°44' E 037°47'0 0.0
2016-May-15 18:33N 44°44' E 037°47'0 0.0
2016-May-15 17:30N 44°44' E 037°47'0 0.0
2016-May-15 16:33N 44°44' E 037°47'0 0.0
2016-May-15 15:33N 44°44' E 037°47'0 0.0
2016-May-15 14:33N 44°44' E 037°47'0 0.0
2016-May-15 13:33N 44°44' E 037°47'0 0.0
2016-May-15 12:33N 44°44' E 037°47'0 0.0
2016-May-15 11:33N 44°44' E 037°47'0 0.0
2016-May-15 10:33N 44°44' E 037°47'0 0.0
2016-May-15 09:33N 44°44' E 037°47'0 0.0
2016-May-15 08:33N 44°44' E 037°47'0 0.0
2016-May-15 07:33N 44°44' E 037°47'0 0.0
2016-May-15 06:33N 44°44' E 037°47'0 0.0
2016-May-15 05:33N 44°44' E 037°47'0 0.0
2016-May-15 04:33N 44°44' E 037°47'  
Track history (hours):
 
Tides and Currents Weather Stations Pressure Air Temp Water Temp Dewpoint Dewpoint Depression Visibility Wind Speed Wind Dir Waves Ship Positions

Dominia

Last reported at 2016-May-25 04:10 UTC. Time now 2016-May-29 00:06 UTC.
Position N 31°13' E 029°44'.

Length 176 m; draft 10.3 m.

Type: Tanker. MMSI: 247273400.

Date/timePositionNaut miles runAvg speedWind from/ knotsBaromVisibWave heightAir tempDewpointWater temp
2016-May-25 04:10N 31°13' E 029°44'  
2016-May-21 21:33N 33°40' E 028°38'1212.4
2016-May-21 20:33N 33°51' E 028°32'2612.4
2016-May-21 18:27N 34°15' E 028°21'7312.2
2016-May-21 12:28N 35°23' E 027°47'15111.6
2016-May-20 23:25N 37°25' E 025°55'225 7.0
2016-May-19 15:29N 40°40' E 028°19'2311.8
2016-May-19 13:33N 40°51' E 028°46'9 8.6
2016-May-19 12:30N 40°57' E 028°55'400 8.9
2016-May-17 15:30N 44°13' E 036°48'1212.6
2016-May-17 14:33N 44°18' E 037°03'1312.5
2016-May-17 13:33N 44°24' E 037°19'1212.5
2016-May-17 12:33N 44°29' E 037°34'1212.2
2016-May-17 11:33N 44°37' E 037°48'7 6.7
2016-May-17 10:33N 44°44' E 037°48'1 0.5
2016-May-17 09:33N 44°44' E 037°47'0 0.0
2016-May-17 08:33N 44°44' E 037°47'0 0.0
2016-May-17 07:33N 44°44' E 037°47'0 0.0
2016-May-17 06:33N 44°44' E 037°47'0 0.0
2016-May-17 05:30N 44°44' E 037°47'0 0.0
2016-May-17 04:33N 44°44' E 037°47'0 0.0
2016-May-17 03:33N 44°44' E 037°47'0 0.0
2016-May-17 02:24N 44°44' E 037°47'0 0.0
2016-May-17 01:33N 44°44' E 037°47'0 0.0
2016-May-17 00:33N 44°44' E 037°47'0 0.0
2016-May-16 23:33N 44°44' E 037°47'0 0.0
2016-May-16 22:33N 44°44' E 037°47'0 0.0
2016-May-16 21:33N 44°44' E 037°47'0 0.0
2016-May-16 20:33N 44°44' E 037°47'0 0.0
2016-May-16 19:33N 44°44' E 037°47'0 0.0
2016-May-16 18:33N 44°44' E 037°47'0 0.0
2016-May-16 17:33N 44°44' E 037°47'0 0.0
2016-May-16 16:33N 44°44' E 037°47'0 0.0
2016-May-16 15:33N 44°44' E 037°47'0 0.0
2016-May-16 14:33N 44°44' E 037°47'0 0.0
2016-May-16 13:33N 44°44' E 037°47'0 0.0
2016-May-16 12:33N 44°44' E 037°47'0 0.0
2016-May-16 11:33N 44°44' E 037°47'0 0.0
2016-May-16 10:33N 44°44' E 037°47'0 0.0
2016-May-16 09:30N 44°44' E 037°47'0 0.0
2016-May-16 08:33N 44°44' E 037°47'0 0.0
2016-May-16 07:33N 44°44' E 037°47'0 0.0
2016-May-16 06:33N 44°44' E 037°47'0 0.0
2016-May-16 05:33N 44°44' E 037°47'0 0.0
2016-May-16 04:33N 44°44' E 037°47'0 0.0
2016-May-16 03:33N 44°44' E 037°47'0 0.0
2016-May-16 02:33N 44°44' E 037°47'0 0.0
2016-May-16 01:33N 44°44' E 037°47'0 0.0
2016-May-16 00:33N 44°44' E 037°47'0 0.0
2016-May-15 23:33N 44°44' E 037°47'0 0.0
2016-May-15 22:33N 44°44' E 037°47'0 0.0
2016-May-15 21:30N 44°44' E 037°47'0 0.0
2016-May-15 20:15N 44°44' E 037°47'0 0.0
2016-May-15 19:33N 44°44' E 037°47'0 0.0
2016-May-15 18:33N 44°44' E 037°47'0 0.0
2016-May-15 17:30N 44°44' E 037°47'0 0.0
2016-May-15 16:33N 44°44' E 037°47'0 0.0
2016-May-15 15:33N 44°44' E 037°47'0 0.0
2016-May-15 14:33N 44°44' E 037°47'0 0.0
2016-May-15 13:33N 44°44' E 037°47'0 0.0
2016-May-15 12:33N 44°44' E 037°47'0 0.0
2016-May-15 11:33N 44°44' E 037°47'0 0.0
2016-May-15 10:33N 44°44' E 037°47'0 0.0
2016-May-15 09:33N 44°44' E 037°47'0 0.0
2016-May-15 08:33N 44°44' E 037°47'0 0.0
2016-May-15 07:33N 44°44' E 037°47'0 0.0
2016-May-15 06:33N 44°44' E 037°47'0 0.0
2016-May-15 05:33N 44°44' E 037°47'0 0.0
2016-May-15 04:33N 44°44' E 037°47'  

Dump ship's entire track history